Details From LGHI - Chios
To LGIR - Iraklion - Nizos Kazantzakis
Flight Number -
Tags generated
Created
Modified
Stats Distance 187 nm / 346 km
Max Altitude 16,000 ft / 4,877 m
Waypoints 3
Social Downloads 0
Likes 0
Share

Download

Looking for another format? Having issues loading an existing format? Contact us
Advertisement - Login to hide

Notes

Basic altitude profile: - Ascent Rate: 2500ft/min - Ascent Speed: 250kts - Cruise Altitude: 23000ft - Cruise Speed: 420kts - Descent Rate: 1500ft/min - Descent Speed: 250kts

Route

LGHI MADEX LGIR

ID Type Via Altitude (ft/m) Position (lat/lon) Dist (leg/tot) Name
O LGHI APT - 0 / 0 38.34318 / 26.14057 - / 0 nm Chios
MADEX FIX - 16,000 / 4,877 36.65306 / 25.39833 107 / 107 nm
O LGIR APT - 0 / 0 35.33949 / 25.18012 79 / 187 nm Iraklion - Nizos Kazantzakis

Altitude Profile

Advertisement - Login to hide

Weather


0- 5 10 15 20 25 30 35+ Temperature / °C

Clouds and Precipitation
Forecast for 2022-08-08 18:00 UTC. Updated 3 hours ago

Ground ~20,000 ft ~40,000 ft Winds

LGHI

Details ICAO LGHI (JKH)
Name Chios
Region Greece
Timezone Europe/Athens (UTC+3.0)
Stats Elevation 18 ft / 5 m (AMSL)
Location 38.343300° 26.140600°
Runways 1
Magnetic Variation 5.241° E

METAR

LGHI 081850Z 36011KT 9999 FEW035 30/19 Q1006

Decode

TAF

Not found

Departure Runways

ID Width Length Bearing (true/mag) Surface Threshold Overrun Markings Lighting
01 95 ft / 29 m 5,352 ft / 1,631 m 9.51° / 4.27° ASPHALT 659 ft / 201 m 0 ft / 0 m APP CENTERLINE EDGE THRESHOLD MALSF
19 95 ft / 29 m 5,352 ft / 1,631 m 189.52° / 184.28° ASPHALT 427 ft / 130 m 0 ft / 0 m APP CENTERLINE EDGE THRESHOLD MALSF

LGIR

Details ICAO LGIR (HER)
Name Iraklion - Nikos Kazantzakis
Region Greece
Timezone Europe/Athens (UTC+3.0)
Stats Elevation 115 ft / 35 m (AMSL)
Location 35.339900° 25.178200°
Runways 2
Magnetic Variation 4.819° E

METAR

LGIR 081850Z 31007KT 9999 FEW020 26/22 Q1009 NOSIG

Decode

TAF

TAF LGIR 081700Z 0818/0918 31017KT 9999 FEW020 TEMPO 0911/0915 SCT020 BKN030

Decode

Destination Runways

ID Width Length Bearing (true/mag) Surface Threshold Overrun Markings Lighting
09 148 ft / 45 m 8,918 ft / 2,718 m 94.87° / 90.05° ASPHALT 1,575 ft / 480 m 0 ft / 0 m PREC-APP CENTERLINE EDGE THRESHOLD REIL-UNI
12 164 ft / 50 m 5,132 ft / 1,564 m 126.44° / 121.62° ASPHALT 492 ft / 150 m 200 ft / 61 m VISUAL CENTERLINE EDGE THRESHOLD
27 148 ft / 45 m 8,918 ft / 2,718 m 274.88° / 270.07° ASPHALT 0 ft / 0 m 213 ft / 65 m PREC-APP CENTERLINE EDGE THRESHOLD REIL-UNI
30 164 ft / 50 m 5,132 ft / 1,564 m 306.45° / 301.63° ASPHALT 0 ft / 0 m 0 ft / 0 m VISUAL CENTERLINE EDGE THRESHOLD

Popular Alternatives